createdAt,value
2018-12-05T00:00:47.447Z,99417.32
2018-12-05T00:03:21.660Z,99423.10
2018-12-05T00:05:55.671Z,99422.02
2018-12-05T00:08:39.135Z,99418.83
2018-12-05T00:11:33.294Z,99416.35
2018-12-05T00:14:13.985Z,99421.55
2018-12-05T00:16:57.594Z,99424.48
2018-12-05T00:19:31.508Z,99436.09
2018-12-05T00:22:05.503Z,99393.58
2018-12-05T00:24:39.572Z,99438.78
2018-12-05T00:27:13.828Z,99437.81
2018-12-05T00:38:38.680Z,99445.02
2018-12-05T00:41:12.496Z,99445.19
2018-12-05T00:43:53.597Z,99444.52
2018-12-05T00:46:34.998Z,99444.03
2018-12-05T00:49:14.693Z,99445.56
2018-12-05T00:51:51.342Z,99444.92
2018-12-05T00:54:29.137Z,99442.81
2018-12-05T00:57:06.676Z,99442.70
2018-12-05T00:59:45.057Z,99434.82
2018-12-05T01:02:22.254Z,99436.37
2018-12-05T01:04:58.202Z,99431.09
2018-12-05T01:07:35.214Z,99437.59
2018-12-05T01:10:09.291Z,99436.37
2018-12-05T01:12:43.405Z,99434.70
2018-12-05T01:15:17.394Z,99429.50
2018-12-05T01:17:52.983Z,99434.91
2018-12-05T01:20:26.969Z,99430.63
2018-12-05T01:23:02.531Z,99429.70
2018-12-05T01:25:36.982Z,99430.55
2018-12-05T01:28:11.045Z,99424.14
2018-12-05T01:30:44.952Z,99432.31
2018-12-05T01:33:18.859Z,99429.50
2018-12-05T01:35:52.821Z,99434.16
2018-12-05T01:38:26.838Z,99434.64
2018-12-05T01:41:00.889Z,99431.41
2018-12-05T01:43:40.428Z,99425.00
2018-12-05T01:46:14.310Z,99420.84
2018-12-05T01:48:48.550Z,99421.77
2018-12-05T01:51:22.559Z,99415.66
2018-12-05T01:53:56.467Z,99419.00
2018-12-05T01:56:30.169Z,99416.20
2018-12-05T01:59:04.399Z,99409.13
2018-12-05T02:01:38.985Z,99415.63
2018-12-05T02:04:13.022Z,99420.81
2018-12-05T02:06:47.114Z,99423.50
2018-12-05T02:09:21.131Z,99429.19
2018-12-05T02:11:55.222Z,99431.41
2018-12-05T02:14:29.366Z,99426.80
2018-12-05T02:17:03.191Z,99431.41
2018-12-05T02:19:37.143Z,99438.38
2018-12-05T02:22:11.261Z,99436.61
2018-12-05T02:24:45.402Z,99438.83
2018-12-05T02:27:19.367Z,99435.31
2018-12-05T02:29:58.439Z,99433.64
2018-12-05T02:32:32.858Z,99433.84
2018-12-05T02:35:06.765Z,99434.88
2018-12-05T02:37:40.877Z,99424.58
2018-12-05T02:40:14.594Z,99420.67
2018-12-05T02:42:48.794Z,99415.69
2018-12-05T02:45:22.600Z,99417.91
2018-12-05T02:47:56.723Z,99419.78
2018-12-05T02:50:30.528Z,99413.41
2018-12-05T02:53:04.477Z,99412.95
2018-12-05T02:55:38.594Z,99422.03
2018-12-05T02:58:12.646Z,99425.58
2018-12-05T03:00:46.554Z,99428.27
2018-12-05T03:03:20.462Z,99421.31
2018-12-05T03:05:54.357Z,99421.31
2018-12-05T03:08:28.378Z,99422.34
2018-12-05T03:11:02.196Z,99389.98
2018-12-05T03:13:36.192Z,99434.23
2018-12-05T03:16:09.997Z,99438.77
2018-12-05T03:18:43.803Z,99439.41
2018-12-05T03:21:17.677Z,99434.50
2018-12-05T03:23:51.692Z,99429.97
2018-12-05T03:26:25.783Z,99429.05
2018-12-05T03:28:59.799Z,99434.26
2018-12-05T03:31:33.945Z,99433.42
2018-12-05T03:34:07.963Z,99439.65
2018-12-05T03:36:41.869Z,99424.90
2018-12-05T03:39:15.776Z,99425.67
2018-12-05T03:41:49.581Z,99422.34
2018-12-05T03:44:23.605Z,99423.99
2018-12-05T03:46:57.764Z,99427.91
2018-12-05T03:49:31.867Z,99436.13
2018-12-05T03:52:06.030Z,99440.61
2018-12-05T03:54:40.142Z,99435.79
2018-12-05T03:57:14.458Z,99437.09
2018-12-05T03:59:48.366Z,99434.49
2018-12-05T04:02:22.194Z,99441.81
2018-12-05T04:04:56.282Z,99440.52
2018-12-05T04:07:30.158Z,99440.52
2018-12-05T04:10:04.912Z,99435.49
2018-12-05T04:12:40.827Z,99434.38
2018-12-05T04:15:15.087Z,99432.09
2018-12-05T04:17:49.049Z,99431.91
2018-12-05T04:20:23.103Z,99429.05
2018-12-05T04:22:57.009Z,99430.23
2018-12-05T04:25:30.819Z,99434.05
2018-12-05T04:28:04.619Z,99436.15
2018-12-05T04:30:38.405Z,99446.19
2018-12-05T04:33:12.637Z,99446.84
2018-12-05T04:35:46.512Z,99450.30
2018-12-05T04:38:20.554Z,99442.70
2018-12-05T04:40:54.443Z,99443.80
2018-12-05T04:43:28.573Z,99446.20
2018-12-05T04:46:02.424Z,99442.58
2018-12-05T04:48:36.362Z,99438.88
2018-12-05T04:51:10.656Z,99444.63
2018-12-05T04:53:44.613Z,99446.20
2018-12-05T04:56:18.628Z,99448.03
2018-12-05T04:58:52.734Z,99445.28
2018-12-05T05:01:26.947Z,99445.44
2018-12-05T05:04:00.958Z,99451.39
2018-12-05T05:06:41.442Z,99458.91
2018-12-05T05:09:11.128Z,99465.20
2018-12-05T05:11:44.938Z,99467.55
2018-12-05T05:14:19.044Z,99464.65
2018-12-05T05:16:52.951Z,99471.52
2018-12-05T05:19:26.907Z,99467.05
2018-12-05T05:22:01.049Z,99471.33
2018-12-05T05:24:35.084Z,99470.95
2018-12-05T05:27:08.989Z,99459.19
2018-12-05T05:29:42.897Z,99454.20
2018-12-05T05:32:16.804Z,99448.55
2018-12-05T05:34:50.609Z,99453.92
2018-12-05T05:37:24.721Z,99454.76
2018-12-05T05:39:58.833Z,99459.83
2018-12-05T05:42:32.745Z,99448.80
2018-12-05T05:45:06.649Z,99449.37
2018-12-05T05:47:40.759Z,99447.81
2018-12-05T05:50:14.666Z,99453.53
2018-12-05T05:52:48.677Z,99456.42
2018-12-05T05:55:22.584Z,99449.45
2018-12-05T05:57:56.491Z,99448.08
2018-12-05T06:00:30.302Z,99450.02
2018-12-05T06:03:04.354Z,99451.70
2018-12-05T06:05:38.317Z,99454.19
2018-12-05T06:08:12.409Z,99449.92
2018-12-05T06:10:46.437Z,99449.45
2018-12-05T06:13:20.345Z,99445.03
2018-12-05T06:15:54.252Z,99450.11
2018-12-05T06:18:28.167Z,99442.71
2018-12-05T06:21:02.065Z,99200.03
2018-12-05T06:23:35.871Z,99435.96
2018-12-05T06:26:09.574Z,99441.95
2018-12-05T06:28:43.583Z,99444.01
2018-12-05T06:31:17.390Z,99442.25
2018-12-05T06:33:51.397Z,99442.59
2018-12-05T06:36:25.569Z,99443.70
2018-12-05T06:38:59.622Z,99441.87
2018-12-05T06:41:33.426Z,99445.19
2018-12-05T06:44:07.332Z,99450.38
2018-12-05T06:46:41.137Z,99450.22
2018-12-05T06:49:14.991Z,99448.73
2018-12-05T06:51:49.054Z,99452.06
2018-12-05T06:54:23.064Z,99451.68
2018-12-05T06:56:57.837Z,99455.00
2018-12-05T06:59:31.918Z,99463.62
2018-12-05T07:02:06.014Z,99461.88
2018-12-05T07:04:39.921Z,99467.60
2018-12-05T07:07:13.725Z,99474.39
2018-12-05T07:09:47.791Z,99471.23
2018-12-05T07:12:21.953Z,99481.34
2018-12-05T07:14:55.755Z,99483.30
2018-12-05T07:17:29.867Z,99484.41
2018-12-05T07:20:05.256Z,99481.89
2018-12-05T07:22:39.012Z,99487.63
2018-12-05T07:25:12.819Z,99487.62
2018-12-05T07:27:46.623Z,99489.38
2018-12-05T07:30:20.529Z,99488.66
2018-12-05T07:32:54.334Z,99491.89
2018-12-05T07:35:28.299Z,99487.70
2018-12-05T07:38:02.250Z,99496.32
2018-12-05T07:40:36.055Z,99497.42
2018-12-05T07:43:09.860Z,99495.86
2018-12-05T07:45:43.674Z,99497.62
2018-12-05T07:48:17.708Z,99490.59
2018-12-05T07:50:51.786Z,99485.12
2018-12-05T07:53:25.694Z,99489.20
2018-12-05T07:55:59.604Z,99485.51
2018-12-05T07:58:33.508Z,99490.43
2018-12-05T08:01:07.416Z,99491.34
2018-12-05T08:03:41.327Z,99497.64
2018-12-05T08:06:15.229Z,99488.84
2018-12-05T08:08:48.932Z,99494.30
2018-12-05T08:11:22.841Z,99503.38
2018-12-05T08:13:57.213Z,99503.56
2018-12-05T08:16:31.268Z,99493.19
2018-12-05T08:19:05.246Z,99499.98
2018-12-05T08:21:39.393Z,99492.53
2018-12-05T08:24:13.501Z,99495.33
2018-12-05T08:26:47.408Z,99495.23
2018-12-05T08:29:21.417Z,99485.59
2018-12-05T08:31:55.222Z,99478.92
2018-12-05T08:34:29.190Z,99476.89
2018-12-05T08:37:03.155Z,99483.84
2018-12-05T08:39:37.202Z,99479.44
2018-12-05T08:42:11.159Z,99477.50
2018-12-05T08:44:45.786Z,99477.63
2018-12-05T08:47:19.791Z,99497.25
2018-12-05T08:49:53.700Z,99466.33
2018-12-05T08:52:27.709Z,99471.51
2018-12-05T08:55:01.923Z,99461.84
2018-12-05T08:57:35.830Z,99460.64
2018-12-05T09:00:09.843Z,99451.44
2018-12-05T09:02:43.648Z,99453.44
2018-12-05T09:05:17.661Z,99453.22
2018-12-05T09:07:51.766Z,99456.38
2018-12-05T09:10:25.673Z,99457.27
2018-12-05T09:12:59.583Z,99462.06
2018-12-05T09:15:33.489Z,99464.18
2018-12-05T09:18:07.461Z,99463.31
2018-12-05T09:20:41.507Z,99454.65
2018-12-05T09:23:15.209Z,99462.53
2018-12-05T09:25:49.186Z,99459.94
2018-12-05T09:28:23.331Z,99460.00
2018-12-05T09:30:57.340Z,99463.12
2018-12-05T09:33:38.327Z,99465.44
2018-12-05T09:36:12.733Z,99461.72
2018-12-05T09:38:46.537Z,99460.34
2018-12-05T09:41:20.445Z,99449.30
2018-12-05T09:43:54.454Z,99448.09
2018-12-05T09:46:28.361Z,99447.59
2018-12-05T09:49:02.166Z,99450.50
2018-12-05T09:51:36.073Z,99442.19
2018-12-05T09:54:10.083Z,99443.52
2018-12-05T09:56:44.093Z,99446.38
2018-12-05T09:59:17.794Z,99438.22
2018-12-05T10:01:51.861Z,99444.27
2018-12-05T10:04:25.919Z,99440.55
2018-12-05T10:06:59.724Z,99434.20
2018-12-05T10:09:33.730Z,99431.84
2018-12-05T10:12:07.740Z,99429.83
2018-12-05T10:14:41.543Z,99429.66
2018-12-05T10:17:15.656Z,99417.37
2018-12-05T10:19:49.563Z,99417.66
2018-12-05T10:22:23.471Z,99414.87
2018-12-05T10:24:57.378Z,99407.52
2018-12-05T10:27:32.394Z,99407.06
2018-12-05T10:30:07.964Z,99401.81
2018-12-05T10:32:41.967Z,99408.56
2018-12-05T10:35:15.774Z,99402.25
2018-12-05T10:37:49.866Z,99404.23
2018-12-05T10:40:23.792Z,99397.57
2018-12-05T10:42:57.766Z,99395.07
2018-12-05T10:45:31.912Z,99392.21
2018-12-05T10:48:05.923Z,99386.41
2018-12-05T10:50:40.037Z,99353.29
2018-12-05T10:53:13.940Z,99381.51
2018-12-05T10:55:47.748Z,99371.74
2018-12-05T10:58:21.838Z,99366.59
2018-12-05T11:01:01.499Z,99354.20
2018-12-05T11:03:35.570Z,99355.72
2018-12-05T11:06:17.761Z,99355.09
2018-12-05T11:08:57.297Z,99347.68
2018-12-05T11:11:37.118Z,99341.12
2018-12-05T11:14:16.839Z,99341.44
2018-12-05T11:16:55.150Z,99347.25
2018-12-05T11:19:34.795Z,99326.91
2018-12-05T11:22:10.707Z,99328.98
2018-12-05T11:24:44.653Z,99322.13
2018-12-05T11:27:18.592Z,99321.84
2018-12-05T11:29:52.674Z,99271.44
2018-12-05T11:32:26.579Z,99305.34
2018-12-05T11:35:00.692Z,99294.20
2018-12-05T11:37:34.804Z,99294.63
2018-12-05T11:40:08.711Z,99294.50
2018-12-05T11:42:42.631Z,99298.31
2018-12-05T11:45:16.731Z,99284.69
2018-12-05T11:47:50.768Z,99289.53
2018-12-05T11:50:24.854Z,99293.22
2018-12-05T11:52:58.759Z,99286.31
2018-12-05T11:55:32.871Z,99287.70
2018-12-05T11:58:06.836Z,99285.17
2018-12-05T12:00:40.980Z,99281.24
2018-12-05T12:03:15.108Z,99277.64
2018-12-05T12:05:49.313Z,99272.59
2018-12-05T12:08:23.333Z,99269.65
2018-12-05T12:10:57.547Z,99273.81
2018-12-05T12:13:31.656Z,99267.27
2018-12-05T12:16:05.873Z,99273.14
2018-12-05T12:18:39.882Z,99266.23
2018-12-05T12:21:13.788Z,99270.16
2018-12-05T12:23:48.006Z,99273.02
2018-12-05T12:26:21.908Z,99266.11
2018-12-05T12:28:55.722Z,99265.36
2018-12-05T12:31:29.722Z,99256.28
2018-12-05T12:34:03.816Z,99263.51
2018-12-05T12:36:37.845Z,99258.06
2018-12-05T12:39:11.598Z,99251.31
2018-12-05T12:41:45.761Z,99251.72
2018-12-05T12:44:19.876Z,99252.67
2018-12-05T12:46:53.679Z,99251.80
2018-12-05T12:49:27.893Z,99256.09
2018-12-05T12:52:01.779Z,99251.41
2018-12-05T12:54:35.809Z,99243.75
2018-12-05T12:57:09.590Z,99234.85
2018-12-05T12:59:43.623Z,99221.33
2018-12-05T13:02:17.530Z,99207.91
2018-12-05T13:04:51.439Z,99198.80
2018-12-05T13:07:25.244Z,99196.95
2018-12-05T13:09:59.051Z,99196.75
2018-12-05T13:12:35.110Z,99198.27
2018-12-05T13:15:09.217Z,99193.50
2018-12-05T13:17:43.139Z,99184.61
2018-12-05T13:20:17.135Z,99189.14
2018-12-05T13:22:50.940Z,99180.61
2018-12-05T13:37:22.568Z,99174.28
2018-12-05T13:39:56.376Z,99163.13
2018-12-05T13:42:30.335Z,99166.78
2018-12-05T13:45:04.917Z,99158.55
2018-12-05T13:47:38.914Z,99160.27
2018-12-05T13:50:12.926Z,99153.92
2018-12-05T13:52:47.244Z,99148.20
2018-12-05T13:55:21.251Z,99146.22
2018-12-05T13:57:54.952Z,99141.66
2018-12-05T14:00:28.963Z,99138.36
2018-12-05T14:03:03.074Z,99139.67
2018-12-05T14:05:37.084Z,99136.62
2018-12-05T14:08:10.888Z,99137.13
2018-12-05T14:10:44.796Z,99136.31
2018-12-05T14:13:18.712Z,99130.05
2018-12-05T14:15:52.611Z,99126.47
2018-12-05T14:18:26.724Z,99129.38
2018-12-05T14:21:00.518Z,99120.96
2018-12-05T14:23:34.645Z,99114.46
2018-12-05T14:26:08.413Z,99110.97
2018-12-05T14:28:46.482Z,99111.36
2018-12-05T14:31:20.320Z,99103.23
2018-12-05T14:33:54.365Z,99102.13
2018-12-05T14:36:28.374Z,99100.93
2018-12-05T14:39:17.675Z,99105.55
2018-12-05T14:41:51.650Z,99101.91
2018-12-05T14:44:25.575Z,99107.09
2018-12-05T14:46:59.772Z,99103.41
2018-12-05T14:49:33.781Z,99111.63
2018-12-05T14:52:07.692Z,99114.57
2018-12-05T14:54:41.699Z,99116.71
2018-12-05T14:57:15.708Z,99111.36
2018-12-05T14:59:49.598Z,99117.63
2018-12-05T15:02:23.625Z,99119.41
2018-12-05T15:04:57.635Z,99122.84
2018-12-05T15:07:31.646Z,99119.11
2018-12-05T15:10:06.371Z,99124.27
2018-12-05T15:12:40.278Z,99114.46
2018-12-05T15:15:14.185Z,99106.33
2018-12-05T15:17:48.116Z,99104.23
2018-12-05T15:20:22.307Z,99093.86
2018-12-05T15:22:56.324Z,99085.03
2018-12-05T15:25:30.226Z,99077.99
2018-12-05T15:28:04.234Z,99073.16
2018-12-05T15:30:38.247Z,99073.81
2018-12-05T15:33:12.253Z,99074.88
2018-12-05T15:35:46.262Z,99075.85
2018-12-05T15:38:20.281Z,99077.55
2018-12-05T15:40:54.077Z,99072.38
2018-12-05T15:43:27.881Z,99065.27
2018-12-05T15:46:01.794Z,99052.46
2018-12-05T15:48:35.903Z,99049.88
2018-12-05T15:51:09.808Z,99045.45
2018-12-05T15:53:43.820Z,99047.73
2018-12-05T15:56:17.831Z,99050.88
2018-12-05T15:58:51.736Z,99045.72
2018-12-05T16:01:25.539Z,99041.17
2018-12-05T16:03:59.462Z,99040.22
2018-12-05T16:06:33.456Z,99031.70
2018-12-05T16:09:07.297Z,99018.34
2018-12-05T16:11:41.476Z,99014.98
2018-12-05T16:14:15.468Z,99014.48
2018-12-05T16:16:49.597Z,99011.05
2018-12-05T16:19:23.504Z,99011.29
2018-12-05T16:21:57.515Z,99010.19
2018-12-05T16:24:31.422Z,99012.06
2018-12-05T16:27:05.329Z,98997.92
2018-12-05T16:29:39.236Z,99000.91
2018-12-05T16:32:13.144Z,99006.58
2018-12-05T16:34:47.050Z,99010.70
2018-12-05T16:37:21.062Z,99004.17
2018-12-05T16:39:54.882Z,99000.62
2018-12-05T16:42:28.976Z,98985.21
2018-12-05T16:45:02.885Z,98980.84
2018-12-05T16:47:36.809Z,98984.08
2018-12-05T16:50:11.006Z,98982.00
2018-12-05T16:52:44.964Z,98977.63
2018-12-05T16:55:19.006Z,98974.16
2018-12-05T16:57:53.148Z,98959.45
2018-12-05T17:00:26.942Z,98958.70
2018-12-05T17:03:00.747Z,98962.27
2018-12-05T17:05:34.657Z,98960.84
2018-12-05T17:08:08.612Z,98968.41
2018-12-05T17:10:42.675Z,98963.96
2018-12-05T17:13:16.619Z,98961.97
2018-12-05T17:15:50.700Z,98957.64
2018-12-05T17:18:24.706Z,98949.13
2018-12-05T17:20:58.609Z,98946.63
2018-12-05T17:23:32.620Z,98947.05
2018-12-05T17:26:06.529Z,98939.15
2018-12-05T17:28:40.334Z,98931.94
2018-12-05T17:31:14.137Z,98940.22
2018-12-05T17:33:49.433Z,98933.45
2018-12-05T17:36:23.386Z,98925.17
2018-12-05T17:38:57.394Z,98922.09
2018-12-05T17:41:31.310Z,98920.37
2018-12-05T17:44:05.208Z,98912.91
2018-12-05T17:46:39.280Z,98911.97
2018-12-05T17:49:13.372Z,98914.70
2018-12-05T17:51:47.345Z,98906.50
2018-12-05T17:54:21.405Z,98903.08
2018-12-05T17:56:55.575Z,98892.39
2018-12-05T17:59:29.678Z,98895.69
2018-12-05T18:02:03.788Z,98888.13
2018-12-05T18:04:38.430Z,98882.14
2018-12-05T18:07:12.729Z,98880.96
2018-12-05T18:09:46.902Z,98879.89
2018-12-05T18:12:20.955Z,98871.90
2018-12-05T18:14:54.860Z,98871.64
2018-12-05T18:17:28.671Z,98874.48
2018-12-05T18:20:02.674Z,98867.02
2018-12-05T18:22:36.615Z,98863.11
2018-12-05T18:25:10.796Z,98867.11
2018-12-05T18:27:45.728Z,98865.02
2018-12-05T18:30:19.635Z,98859.02
2018-12-05T18:32:53.598Z,98854.72
2018-12-05T18:35:27.656Z,98851.85
2018-12-05T18:38:01.685Z,98851.45
2018-12-05T18:40:35.673Z,98850.42
2018-12-05T18:43:09.569Z,98848.49
2018-12-05T18:45:43.590Z,98848.38
2018-12-05T18:48:17.497Z,98844.48
2018-12-05T18:50:51.506Z,98838.44
2018-12-05T19:09:16.197Z,98796.72
2018-12-05T19:11:50.397Z,98791.42
2018-12-05T19:14:30.019Z,98793.61
2018-12-05T19:17:04.166Z,98783.83
2018-12-05T19:19:38.380Z,98776.48
2018-12-05T19:22:12.390Z,98778.25
2018-12-05T19:24:47.222Z,98778.62
2018-12-05T19:27:21.127Z,98762.19
2018-12-05T19:29:54.937Z,98758.87
2018-12-05T19:32:28.939Z,98749.43
2018-12-05T19:35:03.252Z,98758.23
2018-12-05T19:37:37.164Z,98752.09
2018-12-05T19:40:14.249Z,98749.54
2018-12-05T19:42:48.258Z,98748.94
2018-12-05T19:45:21.968Z,98757.99
2018-12-05T19:47:56.172Z,98759.55
2018-12-05T19:50:30.079Z,98748.91
2018-12-05T19:53:05.217Z,98753.78
2018-12-05T19:55:39.839Z,98756.81
2018-12-05T19:58:13.858Z,98752.50
2018-12-05T20:00:47.915Z,98758.12
2018-12-05T20:03:21.867Z,98746.80
2018-12-05T20:05:55.781Z,98749.28
2018-12-05T20:08:29.785Z,98748.55
2018-12-05T20:11:03.593Z,98743.47
2018-12-05T20:13:37.448Z,98739.30
2018-12-05T20:16:11.404Z,98738.63
2018-12-05T20:18:45.312Z,98730.77
2018-12-05T20:21:19.314Z,98720.91
2018-12-05T20:23:53.433Z,98721.45
2018-12-05T20:26:27.144Z,98720.30
2018-12-05T20:29:01.145Z,98713.50
2018-12-05T20:31:35.052Z,98710.84
2018-12-05T20:34:08.975Z,98708.89
2018-12-05T20:36:42.971Z,98693.13
2018-12-05T20:39:16.778Z,98691.16
2018-12-05T20:45:08.622Z,98688.08
2018-12-05T20:47:42.530Z,98683.88
2018-12-05T20:50:16.335Z,98682.05
2018-12-05T20:52:50.243Z,98673.95
2018-12-05T20:55:24.252Z,98678.39
2018-12-05T20:57:58.692Z,98675.91
2018-12-05T21:00:34.522Z,98675.61
2018-12-05T21:03:08.430Z,98663.84
2018-12-05T21:05:42.651Z,98659.74
2018-12-05T21:08:16.551Z,98660.52
2018-12-05T21:10:50.458Z,98658.70
2018-12-05T21:13:24.448Z,98656.70
2018-12-05T21:15:58.586Z,98663.10
2018-12-05T21:18:32.491Z,98655.39
2018-12-05T21:21:06.600Z,98651.69
2018-12-05T21:23:40.608Z,98654.59
2018-12-05T21:26:14.517Z,98645.91
2018-12-05T21:28:48.425Z,98644.39
2018-12-05T21:31:22.182Z,98639.39
2018-12-05T21:33:56.321Z,98636.89
2018-12-05T21:36:30.252Z,98642.31
2018-12-05T21:39:06.790Z,98635.19
2018-12-05T21:41:40.929Z,98633.72
2018-12-05T21:44:15.144Z,98635.25
2018-12-05T21:46:48.950Z,98631.53
2018-12-05T21:49:22.867Z,98626.36
2018-12-05T21:51:56.662Z,98624.71
2018-12-05T21:54:30.578Z,98622.80
2018-12-05T21:57:04.577Z,98611.73
2018-12-05T21:59:39.408Z,98604.05
2018-12-05T22:02:13.519Z,98598.59
2018-12-05T22:04:47.505Z,98605.91
2018-12-05T22:07:21.743Z,98605.82
2018-12-05T22:09:55.776Z,98612.05
2018-12-05T22:12:29.660Z,98607.08
2018-12-05T22:15:03.566Z,98609.88
2018-12-05T22:17:37.371Z,98605.95
2018-12-05T22:20:11.177Z,98602.29
2018-12-05T22:22:44.983Z,98609.52
2018-12-05T22:25:18.888Z,98615.39
2018-12-05T22:27:52.693Z,98615.99
2018-12-05T22:30:26.497Z,98607.53
2018-12-05T22:33:00.304Z,98614.20
2018-12-05T22:35:34.220Z,98610.84
2018-12-05T22:38:08.117Z,98618.95
2018-12-05T22:40:42.024Z,98616.08
2018-12-05T22:43:15.835Z,98610.92
2018-12-05T22:45:49.736Z,98606.18
2018-12-05T22:48:23.643Z,98613.37
2018-12-05T22:50:57.652Z,98598.90
2018-12-05T22:53:31.542Z,98596.71
2018-12-05T22:56:05.631Z,98595.48
2018-12-05T22:58:39.785Z,98598.20
2018-12-05T23:01:13.795Z,98597.23
2018-12-05T23:03:48.008Z,98590.91
2018-12-05T23:06:21.916Z,98594.02
2018-12-05T23:08:55.823Z,98594.05
2018-12-05T23:11:29.730Z,98590.42
2018-12-05T23:14:03.651Z,98578.25
2018-12-05T23:16:37.803Z,98582.45
2018-12-05T23:19:11.894Z,98574.89
2018-12-05T23:21:45.972Z,98529.44
2018-12-05T23:24:19.779Z,98557.32
2018-12-05T23:26:54.896Z,98557.64
2018-12-05T23:29:29.132Z,98558.50
2018-12-05T23:32:03.098Z,98553.88
2018-12-05T23:34:37.353Z,98552.89
2018-12-05T23:37:11.157Z,98552.27
2018-12-05T23:39:45.270Z,98554.08
2018-12-05T23:42:19.178Z,98547.00
2018-12-05T23:44:53.089Z,98551.86
2018-12-05T23:47:26.999Z,98547.53
2018-12-05T23:50:01.001Z,98547.47
2018-12-05T23:52:34.909Z,98528.33
2018-12-05T23:55:08.712Z,98529.80
2018-12-05T23:57:42.620Z,98514.75
